Jenkins Bridge, Virginia
Current Conditions -  °F | °C
As of 1:54 PM on Thursday 30 Oct 2014 (Local Time) from KWAL Reporting Station
Scattered Clouds Scattered Clouds  
Wind Chill: 64°   Ceiling: Unl
Heat Index: 64°   Visibility: 10mi
Dew Point: 43°   Wind: 9mph
Humidity: 46%   Direction: 30°NNE
Pressure: 30"   Gusts: NA
Location:  37.92°N, 75.63°W
Report Text: KWAL 301754Z 03008KT 10SM SCT045 18/06 A3000 RMK AO2 SLP156 T01780061 10178 20089 58012
Loading
Personal Weather Stations






























Interactive Weather Map
Tropical Storm Tracking
New forecast layout! Learn more

10-Day Weather Forecast

Advertisements
Track Severe Weather on mobile